Time;durP1;ratioP1;P1;durP2;ratioP2;P2;SDS_P1;SDS_P2;PMS_P1;PMS_P2;Temp;Humidity;BMP_temperature;BMP_pressure;BME280_temperature;BME280_humidity;BME280_pressure;Samples;Min_cycle;Max_cycle;Signal;HPM_P1;HPM_P2
2022/05/08 00:02:22;;;;;;;;;;;14.40;77.10;;;;;;5032841;28;19913;-79
2022/05/08 00:04:51;;;;;;;;;;;14.30;77.20;;;;;;5022491;28;20291;-80
2022/05/08 00:07:17;;;;;;;;;;;14.30;77.30;;;;;;5043066;28;20016;-80
2022/05/08 00:09:44;;;;;;;;;;;14.30;77.00;;;;;;5020639;28;19978;-80
2022/05/08 00:12:13;;;;;;;;;;;14.40;77.30;;;;;;5037563;28;19956;-80
2022/05/08 00:14:39;;;;;;;;;;;14.40;77.10;;;;;;5023118;28;20430;-80
2022/05/08 00:17:06;;;;;;;;;;;14.50;76.20;;;;;;5019438;28;19917;-80
2022/05/08 00:19:32;;;;;;;;;;;14.40;75.50;;;;;;5038222;28;19917;-79
2022/05/08 00:21:57;;;;;;;;;;;14.30;75.70;;;;;;5029765;28;19921;-79
2022/05/08 00:24:23;;;;;;;;;;;14.30;75.30;;;;;;5033673;28;19921;-79
2022/05/08 00:26:50;;;;;;;;;;;14.20;74.90;;;;;;5037745;28;20008;-79
2022/05/08 00:29:16;;;;;;;;;;;14.10;74.90;;;;;;5038051;28;19956;-80
2022/05/08 00:31:42;;;;;;;;;;;14.10;75.10;;;;;;5049504;28;19913;-79
2022/05/08 00:34:08;;;;;;;;;;;14.00;75.20;;;;;;5041189;28;19943;-79
2022/05/08 00:36:34;;;;;;;;;;;14.00;75.40;;;;;;5041963;28;19923;-79
2022/05/08 00:39:00;;;;;;;;;;;14.00;75.00;;;;;;5043393;28;19948;-80
2022/05/08 00:41:26;;;;;;;;;;;13.80;75.40;;;;;;5038590;28;19913;-79
2022/05/08 00:43:52;;;;;;;;;;;13.80;75.30;;;;;;5025020;28;19936;-79
2022/05/08 00:46:18;;;;;;;;;;;13.80;75.10;;;;;;5035090;28;19917;-79
2022/05/08 00:48:44;;;;;;;;;;;13.70;75.60;;;;;;5036683;28;19914;-79
2022/05/08 00:51:11;;;;;;;;;;;13.80;75.20;;;;;;5039137;28;19937;-79
2022/05/08 00:53:42;;;;;;;;;;;13.80;75.40;;;;;;5026495;28;19963;-79
2022/05/08 00:56:10;;;;;;;;;;;13.80;75.20;;;;;;5038643;28;19975;-79
2022/05/08 00:58:36;;;;;;;;;;;13.60;75.10;;;;;;5021414;28;19968;-80
2022/05/08 01:01:03;;;;;;;;;;;13.60;75.40;;;;;;5026336;28;20368;-79
2022/05/08 01:03:29;;;;;;;;;;;13.60;74.80;;;;;;5036368;28;19937;-79
2022/05/08 01:05:55;;;;;;;;;;;13.50;74.60;;;;;;5035065;28;19952;-79
2022/05/08 01:08:22;;;;;;;;;;;13.50;74.80;;;;;;5053445;28;19917;-79
2022/05/08 01:10:48;;;;;;;;;;;13.50;74.80;;;;;;5025024;28;20028;-79
2022/05/08 01:13:14;;;;;;;;;;;13.40;75.20;;;;;;5039069;28;19924;-79
2022/05/08 01:15:40;;;;;;;;;;;13.40;75.50;;;;;;5035570;28;20000;-78
2022/05/08 01:18:06;;;;;;;;;;;13.50;75.50;;;;;;5034740;28;19990;-79
2022/05/08 01:20:32;;;;;;;;;;;13.50;74.60;;;;;;5034041;28;19927;-79
2022/05/08 01:22:58;;;;;;;;;;;13.40;74.80;;;;;;5035694;28;19924;-79
2022/05/08 01:25:24;;;;;;;;;;;13.30;74.80;;;;;;5026272;28;20075;-79
2022/05/08 01:27:49;;;;;;;;;;;13.30;75.00;;;;;;5024441;28;19913;-79
2022/05/08 01:30:15;;;;;;;;;;;13.30;75.20;;;;;;5016352;28;19993;-77
2022/05/08 01:32:41;;;;;;;;;;;13.20;75.30;;;;;;5035058;28;19913;-77
2022/05/08 01:35:07;;;;;;;;;;;13.20;75.20;;;;;;5010642;28;20032;-76
2022/05/08 01:37:33;;;;;;;;;;;13.20;75.10;;;;;;5050757;28;19948;-77
2022/05/08 01:39:58;;;;;;;;;;;13.10;75.50;;;;;;5035461;28;20343;-78
2022/05/08 01:42:27;;;;;;;;;;;13.10;75.30;;;;;;5033813;28;19974;-78
2022/05/08 01:44:52;;;;;;;;;;;13.10;75.60;;;;;;5018039;28;20532;-78
2022/05/08 01:50:03;;;;;;;;;;;13.00;75.70;;;;;;5034332;28;19936;-78
2022/05/08 01:52:29;;;;;;;;;;;12.90;75.90;;;;;;5014446;28;20369;-78
2022/05/08 01:54:54;;;;;;;;;;;12.80;76.20;;;;;;5033618;28;19915;-78
2022/05/08 01:57:20;;;;;;;;;;;12.90;76.30;;;;;;5032316;28;19939;-79
2022/05/08 01:59:46;;;;;;;;;;;12.80;75.80;;;;;;5036201;28;19933;-78
2022/05/08 02:02:12;;;;;;;;;;;12.70;76.20;;;;;;5033381;28;19917;-78
2022/05/08 02:04:37;;;;;;;;;;;12.70;76.20;;;;;;5017384;28;19936;-78
2022/05/08 02:07:04;;;;;;;;;;;12.70;76.40;;;;;;5015919;28;20012;-78
2022/05/08 02:09:30;;;;;;;;;;;12.60;76.90;;;;;;5037506;28;20317;-78
2022/05/08 02:11:56;;;;;;;;;;;12.50;77.20;;;;;;5019339;28;20335;-78
2022/05/08 02:14:22;;;;;;;;;;;12.60;77.30;;;;;;5035151;28;19929;-78
2022/05/08 02:16:48;;;;;;;;;;;12.50;77.40;;;;;;5038414;28;19932;-78
2022/05/08 02:19:14;;;;;;;;;;;12.50;77.20;;;;;;5018355;28;20269;-78
2022/05/08 02:21:40;;;;;;;;;;;12.50;77.10;;;;;;5049343;28;19956;-78
2022/05/08 02:24:06;;;;;;;;;;;12.50;76.90;;;;;;5021928;28;20202;-78
2022/05/08 02:26:31;;;;;;;;;;;12.30;77.40;;;;;;5015832;28;19913;-78
2022/05/08 02:28:57;;;;;;;;;;;12.40;77.50;;;;;;5024358;28;20443;-78
2022/05/08 02:31:23;;;;;;;;;;;12.30;77.40;;;;;;5016431;28;19979;-78
2022/05/08 02:33:49;;;;;;;;;;;12.30;77.60;;;;;;5035120;28;20010;-78
2022/05/08 02:36:16;;;;;;;;;;;12.30;77.60;;;;;;5035960;28;21163;-78
2022/05/08 02:38:42;;;;;;;;;;;12.40;77.20;;;;;;5023635;28;19929;-78
2022/05/08 02:41:07;;;;;;;;;;;12.40;77.40;;;;;;5032994;28;19952;-78
2022/05/08 02:43:33;;;;;;;;;;;12.20;77.40;;;;;;5033741;28;20270;-77
2022/05/08 02:46:02;;;;;;;;;;;12.10;77.80;;;;;;5037231;28;20333;-77
2022/05/08 02:48:27;;;;;;;;;;;12.20;77.70;;;;;;5034214;28;19920;-78
2022/05/08 02:50:53;;;;;;;;;;;12.10;77.90;;;;;;5036165;28;19913;-77
2022/05/08 02:53:20;;;;;;;;;;;12.00;78.40;;;;;;5017796;28;19913;-78
2022/05/08 02:58:33;;;;;;;;;;;12.00;78.50;;;;;;5049129;28;19986;-78
2022/05/08 03:01:00;;;;;;;;;;;11.90;78.70;;;;;;5033325;28;20354;-78
2022/05/08 03:03:25;;;;;;;;;;;11.90;78.70;;;;;;5024553;28;19925;-78
2022/05/08 03:05:51;;;;;;;;;;;11.90;78.70;;;;;;5038962;28;19920;-78
2022/05/08 03:08:17;;;;;;;;;;;11.80;78.60;;;;;;5025113;28;19917;-79
2022/05/08 03:13:27;;;;;;;;;;;11.90;77.70;;;;;;5027952;28;19924;-79
2022/05/08 03:15:53;;;;;;;;;;;11.80;77.40;;;;;;5029684;28;19921;-79
2022/05/08 03:18:19;;;;;;;;;;;11.90;77.30;;;;;;5027557;28;19923;-78
2022/05/08 03:20:44;;;;;;;;;;;11.70;77.70;;;;;;5027786;28;19924;-78
2022/05/08 03:23:10;;;;;;;;;;;11.60;77.10;;;;;;5024580;28;19993;-78
2022/05/08 03:25:36;;;;;;;;;;;11.50;77.20;;;;;;5029565;28;19914;-78
2022/05/08 03:28:01;;;;;;;;;;;11.50;76.10;;;;;;5013213;28;19910;-78
2022/05/08 03:30:28;;;;;;;;;;;11.50;76.10;;;;;;5019463;28;20452;-79
2022/05/08 03:32:54;;;;;;;;;;;11.50;75.60;;;;;;5013717;28;19921;-78
2022/05/08 03:35:19;;;;;;;;;;;11.50;75.40;;;;;;5012818;28;19914;-79
2022/05/08 03:37:44;;;;;;;;;;;11.50;75.30;;;;;;5026362;28;20004;-78
2022/05/08 03:40:10;;;;;;;;;;;11.40;75.40;;;;;;5030486;28;19924;-78
2022/05/08 03:42:36;;;;;;;;;;;11.30;75.00;;;;;;5026970;28;20361;-78
2022/05/08 03:45:01;;;;;;;;;;;11.30;74.50;;;;;;5012553;28;19917;-78
2022/05/08 03:47:27;;;;;;;;;;;11.30;74.80;;;;;;5012003;28;20356;-78
2022/05/08 03:49:53;;;;;;;;;;;11.20;75.00;;;;;;5030000;28;19913;-78
2022/05/08 03:52:19;;;;;;;;;;;11.30;74.80;;;;;;5018798;28;19920;-78
2022/05/08 03:54:44;;;;;;;;;;;11.40;74.30;;;;;;5066541;28;19980;-78
2022/05/08 03:57:09;;;;;;;;;;;11.10;74.70;;;;;;5046113;28;19917;-78
2022/05/08 03:59:35;;;;;;;;;;;11.10;74.90;;;;;;5029595;28;19913;-79
2022/05/08 04:02:00;;;;;;;;;;;11.00;75.20;;;;;;5026286;28;19910;-78
2022/05/08 04:04:26;;;;;;;;;;;11.00;75.50;;;;;;5029192;28;19928;-78
2022/05/08 04:06:51;;;;;;;;;;;11.10;75.30;;;;;;5031887;28;19975;-78
2022/05/08 04:09:17;;;;;;;;;;;11.10;74.60;;;;;;5022017;28;19913;-78
2022/05/08 04:11:42;;;;;;;;;;;11.10;74.50;;;;;;5014326;28;19915;-78
2022/05/08 04:14:07;;;;;;;;;;;11.10;74.60;;;;;;5013400;28;20010;-78
2022/05/08 04:16:33;;;;;;;;;;;11.10;74.70;;;;;;5031480;28;19928;-77
2022/05/08 04:18:59;;;;;;;;;;;11.00;75.30;;;;;;5030452;28;20030;-78
2022/05/08 04:21:24;;;;;;;;;;;11.10;74.90;;;;;;5017431;28;19920;-77
2022/05/08 04:26:34;;;;;;;;;;;11.10;74.60;;;;;;5032122;28;19920;-77
2022/05/08 04:29:02;;;;;;;;;;;11.00;74.80;;;;;;5028725;28;19910;-78
2022/05/08 04:31:28;;;;;;;;;;;10.80;74.00;;;;;;5028563;28;19917;-78
2022/05/08 04:33:54;;;;;;;;;;;10.60;74.30;;;;;;5031770;28;20007;-78
2022/05/08 04:36:19;;;;;;;;;;;10.60;74.20;;;;;;5028448;28;19999;-78
2022/05/08 04:38:45;;;;;;;;;;;10.60;74.60;;;;;;5025641;28;20360;-78
2022/05/08 04:41:11;;;;;;;;;;;10.60;74.40;;;;;;5025927;28;19913;-78
2022/05/08 04:43:36;;;;;;;;;;;10.60;74.50;;;;;;5032020;28;19971;-78
2022/05/08 04:46:02;;;;;;;;;;;10.80;74.10;;;;;;5027798;28;19917;-77
2022/05/08 04:48:28;;;;;;;;;;;10.80;74.60;;;;;;5013589;28;20581;-78
2022/05/08 04:50:54;;;;;;;;;;;10.80;74.60;;;;;;5021640;28;19949;-78
2022/05/08 04:53:19;;;;;;;;;;;10.70;74.70;;;;;;5030233;28;19917;-78
2022/05/08 04:55:44;;;;;;;;;;;10.70;75.40;;;;;;5027991;28;19913;-77
2022/05/08 04:58:10;;;;;;;;;;;10.80;75.40;;;;;;5031450;28;19930;-77
2022/05/08 05:00:35;;;;;;;;;;;10.80;75.60;;;;;;5029381;28;19948;-77
2022/05/08 05:03:01;;;;;;;;;;;10.80;75.30;;;;;;5015340;28;19916;-78
2022/05/08 05:05:27;;;;;;;;;;;10.70;75.20;;;;;;5024124;28;19913;-78
2022/05/08 05:07:52;;;;;;;;;;;10.60;74.90;;;;;;5032779;28;19913;-78
2022/05/08 05:10:18;;;;;;;;;;;10.60;75.10;;;;;;5031008;28;19932;-78
2022/05/08 05:12:44;;;;;;;;;;;10.60;74.90;;;;;;5031709;28;20392;-77
2022/05/08 05:15:09;;;;;;;;;;;10.60;75.10;;;;;;5026920;28;20058;-79
2022/05/08 05:17:35;;;;;;;;;;;10.60;75.40;;;;;;5029932;28;19920;-78
2022/05/08 05:20:01;;;;;;;;;;;10.70;74.80;;;;;;5026186;28;19917;-78
2022/05/08 05:22:26;;;;;;;;;;;10.80;74.50;;;;;;5029845;28;19917;-78
2022/05/08 05:24:54;;;;;;;;;;;10.80;74.80;;;;;;5026502;28;19952;-77
2022/05/08 05:27:20;;;;;;;;;;;10.70;74.70;;;;;;5010740;28;19921;-78
2022/05/08 05:29:45;;;;;;;;;;;10.80;75.10;;;;;;5014943;28;19920;-78
2022/05/08 05:32:11;;;;;;;;;;;10.80;74.90;;;;;;5015455;28;19917;-79
2022/05/08 05:34:36;;;;;;;;;;;10.80;74.40;;;;;;5029380;28;19913;-78
2022/05/08 05:37:02;;;;;;;;;;;10.70;74.80;;;;;;5026065;28;20383;-76
2022/05/08 05:39:27;;;;;;;;;;;10.70;74.80;;;;;;5030818;28;20413;-77
2022/05/08 05:41:53;;;;;;;;;;;10.70;74.40;;;;;;5010920;28;19969;-78
2022/05/08 05:44:18;;;;;;;;;;;10.60;75.20;;;;;;5030243;28;19971;-78
2022/05/08 05:49:28;;;;;;;;;;;10.60;75.00;;;;;;5037895;28;20406;-78
2022/05/08 05:51:54;;;;;;;;;;;10.60;75.20;;;;;;5025739;28;20017;-78
2022/05/08 05:54:21;;;;;;;;;;;10.60;75.00;;;;;;5030281;28;20005;-77
2022/05/08 05:56:50;;;;;;;;;;;10.60;74.60;;;;;;5025047;28;19919;-78
2022/05/08 05:59:15;;;;;;;;;;;10.70;74.80;;;;;;5020324;28;19989;-77
2022/05/08 06:01:41;;;;;;;;;;;10.70;74.80;;;;;;5024132;28;20065;-77
2022/05/08 06:04:06;;;;;;;;;;;10.80;74.40;;;;;;5023787;28;19924;-77
2022/05/08 06:06:32;;;;;;;;;;;10.70;74.60;;;;;;5024477;28;19913;-78
2022/05/08 06:08:57;;;;;;;;;;;10.60;74.60;;;;;;5003518;28;20393;-77
2022/05/08 06:11:22;;;;;;;;;;;10.50;74.50;;;;;;5024501;28;20328;-77
2022/05/08 06:13:48;;;;;;;;;;;10.60;74.40;;;;;;5029537;28;19913;-78
2022/05/08 06:16:13;;;;;;;;;;;10.70;73.90;;;;;;5027962;28;20131;-80
2022/05/08 06:18:39;;;;;;;;;;;10.60;74.00;;;;;;5031078;28;20313;-78
2022/05/08 06:21:04;;;;;;;;;;;10.60;73.70;;;;;;5008178;28;19963;-78
2022/05/08 06:23:30;;;;;;;;;;;10.50;74.30;;;;;;5020308;28;19917;-78
2022/05/08 06:25:55;;;;;;;;;;;10.70;74.30;;;;;;5027818;28;19982;-78
2022/05/08 06:28:21;;;;;;;;;;;10.60;74.20;;;;;;5027476;28;19924;-78
2022/05/08 06:30:46;;;;;;;;;;;10.70;74.40;;;;;;5026865;28;19937;-78
2022/05/08 06:33:12;;;;;;;;;;;10.70;73.70;;;;;;5006994;28;19914;-78
2022/05/08 06:35:38;;;;;;;;;;;11.00;73.50;;;;;;5028743;28;20004;-78
2022/05/08 06:38:04;;;;;;;;;;;11.10;73.30;;;;;;5010711;28;19920;-79
2022/05/08 06:40:29;;;;;;;;;;;11.20;72.40;;;;;;5010227;28;19913;-78
2022/05/08 06:42:55;;;;;;;;;;;11.30;71.80;;;;;;5024009;28;20012;-78
2022/05/08 06:45:24;;;;;;;;;;;11.20;72.60;;;;;;5028362;28;19917;-77
2022/05/08 06:47:50;;;;;;;;;;;11.20;72.50;;;;;;5022236;28;20016;-78
2022/05/08 06:50:17;;;;;;;;;;;11.40;72.20;;;;;;5014779;28;19996;-79
2022/05/08 06:52:42;;;;;;;;;;;11.30;72.90;;;;;;5009379;28;19967;-78
2022/05/08 06:55:08;;;;;;;;;;;11.10;72.90;;;;;;5026720;28;19921;-78
2022/05/08 06:57:33;;;;;;;;;;;11.20;72.30;;;;;;5012093;28;19916;-78
2022/05/08 07:02:43;;;;;;;;;;;11.30;72.50;;;;;;5027780;28;19960;-78
2022/05/08 07:05:09;;;;;;;;;;;11.10;72.90;;;;;;5011022;28;19924;-78
2022/05/08 07:07:36;;;;;;;;;;;11.00;73.10;;;;;;5026217;28;20293;-78
2022/05/08 07:10:02;;;;;;;;;;;11.00;73.50;;;;;;5020580;28;21600;-78
2022/05/08 07:12:28;;;;;;;;;;;11.10;73.30;;;;;;5025077;28;20398;-78
2022/05/08 07:14:53;;;;;;;;;;;11.30;72.60;;;;;;5009938;28;20023;-79
2022/05/08 07:17:21;;;;;;;;;;;11.40;72.40;;;;;;5012495;28;19923;-80
2022/05/08 07:19:47;;;;;;;;;;;11.60;71.60;;;;;;5011155;28;19917;-78
2022/05/08 07:22:14;;;;;;;;;;;11.80;70.80;;;;;;5030446;28;20449;-79
2022/05/08 07:24:40;;;;;;;;;;;11.90;69.50;;;;;;5028827;28;19921;-79
2022/05/08 07:27:05;;;;;;;;;;;12.00;70.10;;;;;;5028899;28;19970;-77
2022/05/08 07:29:31;;;;;;;;;;;12.00;69.90;;;;;;5020420;28;19980;-79
2022/05/08 07:31:58;;;;;;;;;;;12.00;69.00;;;;;;5027493;28;19920;-79
2022/05/08 07:37:08;;;;;;;;;;;11.70;70.20;;;;;;5028341;28;20596;-82
2022/05/08 07:39:33;;;;;;;;;;;11.80;70.00;;;;;;5027047;28;20009;-81
2022/05/08 07:41:59;;;;;;;;;;;11.90;69.90;;;;;;5014743;28;20370;-80
2022/05/08 07:44:24;;;;;;;;;;;12.10;69.10;;;;;;5014150;28;19944;-80
2022/05/08 07:46:51;;;;;;;;;;;11.90;68.50;;;;;;5013334;28;19925;-79
2022/05/08 07:49:16;;;;;;;;;;;11.80;69.10;;;;;;5017575;28;20019;-79
2022/05/08 07:51:42;;;;;;;;;;;12.00;68.90;;;;;;5015842;28;19913;-79
2022/05/08 07:54:07;;;;;;;;;;;12.10;68.40;;;;;;5015341;28;19917;-79
2022/05/08 07:56:34;;;;;;;;;;;12.10;68.60;;;;;;5034223;28;19909;-80
2022/05/08 07:59:00;;;;;;;;;;;12.30;68.00;;;;;;5014212;28;19988;-79
2022/05/08 08:01:25;;;;;;;;;;;12.30;67.00;;;;;;5033651;28;20073;-80
2022/05/08 08:03:51;;;;;;;;;;;12.50;66.80;;;;;;5046267;28;19956;-78
2022/05/08 08:06:16;;;;;;;;;;;12.50;65.90;;;;;;5043486;28;19924;-79
2022/05/08 08:08:42;;;;;;;;;;;12.60;66.30;;;;;;5018185;28;20087;-80
2022/05/08 08:11:08;;;;;;;;;;;12.60;65.40;;;;;;5015961;28;19920;-79
2022/05/08 08:13:34;;;;;;;;;;;12.60;67.30;;;;;;5037494;28;19927;-80
2022/05/08 08:16:00;;;;;;;;;;;12.50;67.80;;;;;;5032174;28;20000;-79
2022/05/08 08:18:26;;;;;;;;;;;12.80;66.40;;;;;;5029191;28;20058;-79
2022/05/08 08:20:51;;;;;;;;;;;13.00;65.60;;;;;;5012783;28;20599;-81
2022/05/08 08:23:17;;;;;;;;;;;13.10;66.00;;;;;;5032560;28;19923;-79
2022/05/08 08:25:43;;;;;;;;;;;13.20;64.00;;;;;;5030635;28;19983;-79
2022/05/08 08:28:08;;;;;;;;;;;13.20;63.10;;;;;;5027931;28;20246;-79
2022/05/08 08:30:34;;;;;;;;;;;13.10;63.30;;;;;;5025395;28;19936;-79
2022/05/08 08:33:00;;;;;;;;;;;13.20;64.20;;;;;;5017257;28;19913;-80
2022/05/08 08:35:26;;;;;;;;;;;13.30;64.20;;;;;;5027380;28;19995;-79
2022/05/08 08:37:51;;;;;;;;;;;13.40;64.20;;;;;;5012392;28;19947;-79
2022/05/08 08:40:18;;;;;;;;;;;13.40;62.20;;;;;;5011391;28;19916;-80
2022/05/08 08:42:43;;;;;;;;;;;13.50;63.40;;;;;;5016304;28;19921;-78
2022/05/08 08:48:03;;;;;;;;;;;13.30;64.80;;;;;;5017647;28;19924;-79
2022/05/08 08:50:28;;;;;;;;;;;13.50;63.70;;;;;;5030170;28;19914;-78
2022/05/08 08:52:56;;;;;;;;;;;13.60;63.90;;;;;;5022276;28;19919;-78
2022/05/08 08:55:22;;;;;;;;;;;13.20;64.30;;;;;;5012022;28;19910;-79
2022/05/08 08:57:48;;;;;;;;;;;13.40;63.70;;;;;;5034620;28;19983;-79
2022/05/08 09:00:14;;;;;;;;;;;13.40;63.70;;;;;;5032595;28;19909;-79
2022/05/08 09:02:39;;;;;;;;;;;13.40;63.90;;;;;;5016316;28;20041;-79
2022/05/08 09:05:07;;;;;;;;;;;13.60;64.70;;;;;;5036382;28;19924;-79
2022/05/08 09:07:39;;;;;;;;;;;13.80;63.60;;;;;;5029930;28;19925;-79
2022/05/08 09:10:05;;;;;;;;;;;14.00;62.80;;;;;;5017510;28;19917;-79
2022/05/08 09:12:30;;;;;;;;;;;14.10;62.30;;;;;;5035364;28;19909;-80
2022/05/08 09:14:56;;;;;;;;;;;14.00;60.30;;;;;;5034330;28;19921;-79
2022/05/08 09:17:21;;;;;;;;;;;13.80;62.60;;;;;;5016725;28;19978;-79
2022/05/08 09:19:47;;;;;;;;;;;14.10;62.50;;;;;;5028673;28;19924;-79
2022/05/08 09:22:15;;;;;;;;;;;14.20;61.80;;;;;;5033609;28;19913;-79
2022/05/08 09:24:51;;;;;;;;;;;14.30;60.70;;;;;;5015747;28;19917;-79
2022/05/08 09:27:18;;;;;;;;;;;14.50;60.30;;;;;;5033486;28;19959;-79
2022/05/08 09:29:44;;;;;;;;;;;14.60;61.20;;;;;;5015373;28;20024;-79
2022/05/08 09:32:24;;;;;;;;;;;14.90;59.80;;;;;;5013909;28;19913;-80
2022/05/08 09:34:59;;;;;;;;;;;14.90;56.30;;;;;;5032607;28;19948;-80
2022/05/08 09:37:25;;;;;;;;;;;14.70;57.00;;;;;;5018080;28;20002;-78
2022/05/08 09:39:51;;;;;;;;;;;14.70;58.00;;;;;;5039933;28;19917;-80
2022/05/08 09:42:47;;;;;;;;;;;15.00;57.80;;;;;;5036121;28;19919;-82
2022/05/08 09:45:12;;;;;;;;;;;15.30;57.30;;;;;;5019507;28;19975;-80
2022/05/08 09:47:46;;;;;;;;;;;15.50;56.80;;;;;;5034936;28;20380;-80
2022/05/08 09:50:12;;;;;;;;;;;15.50;56.50;;;;;;5027140;28;19936;-80
2022/05/08 09:52:39;;;;;;;;;;;15.30;55.00;;;;;;5040708;28;19912;-80
2022/05/08 09:55:05;;;;;;;;;;;15.30;56.30;;;;;;5032156;28;19913;-78
2022/05/08 09:57:33;;;;;;;;;;;15.10;55.20;;;;;;5033931;28;19923;-79
2022/05/08 09:59:59;;;;;;;;;;;14.90;55.50;;;;;;5033705;28;20051;-79
2022/05/08 10:02:24;;;;;;;;;;;14.90;56.40;;;;;;5032936;28;20347;-82
2022/05/08 10:04:50;;;;;;;;;;;15.10;56.40;;;;;;5030535;28;19928;-79
2022/05/08 10:07:16;;;;;;;;;;;15.40;55.60;;;;;;5015809;28;19924;-80
2022/05/08 10:15:18;;;;;;;;;;;15.60;55.30;;;;;;5028840;28;20011;-80
2022/05/08 10:17:43;;;;;;;;;;;15.60;55.40;;;;;;5031796;28;19957;-80
2022/05/08 10:20:09;;;;;;;;;;;15.60;56.40;;;;;;5027128;28;19924;-79
2022/05/08 10:22:48;;;;;;;;;;;15.50;57.40;;;;;;4997574;28;20079;-80
2022/05/08 10:25:15;;;;;;;;;;;15.70;54.40;;;;;;5016819;28;19932;-80
2022/05/08 10:27:41;;;;;;;;;;;15.90;53.30;;;;;;5002206;28;20504;-80
2022/05/08 10:30:06;;;;;;;;;;;15.90;54.00;;;;;;5030974;28;19913;-80
2022/05/08 10:32:32;;;;;;;;;;;15.90;55.40;;;;;;5026523;28;19917;-80
2022/05/08 10:35:07;;;;;;;;;;;15.90;55.80;;;;;;5011002;28;20077;-81
2022/05/08 10:37:34;;;;;;;;;;;16.00;56.70;;;;;;5018364;28;19914;-83
2022/05/08 10:40:00;;;;;;;;;;;16.00;54.30;;;;;;5001113;28;19924;-82
2022/05/08 10:42:29;;;;;;;;;;;16.00;53.50;;;;;;5002106;28;19955;-81
2022/05/08 10:44:59;;;;;;;;;;;15.80;53.30;;;;;;5003715;28;20012;-82
2022/05/08 10:47:36;;;;;;;;;;;15.80;54.60;;;;;;4999258;28;19924;-81
2022/05/08 10:50:11;;;;;;;;;;;15.90;53.90;;;;;;5023709;28;19913;-81
2022/05/08 10:52:41;;;;;;;;;;;15.60;54.30;;;;;;5008647;28;19976;-81
2022/05/08 10:55:08;;;;;;;;;;;15.40;54.80;;;;;;5027324;28;19959;-81
2022/05/08 10:57:34;;;;;;;;;;;15.30;56.60;;;;;;5028974;28;20220;-81
2022/05/08 11:00:00;;;;;;;;;;;15.30;57.90;;;;;;5008164;28;20387;-79
2022/05/08 11:02:47;;;;;;;;;;;15.50;57.30;;;;;;5040438;28;19917;-81
2022/05/08 11:05:13;;;;;;;;;;;15.60;57.10;;;;;;5023386;28;19956;-79
2022/05/08 11:07:40;;;;;;;;;;;15.50;57.40;;;;;;5005675;28;20346;-79
2022/05/08 11:10:22;;;;;;;;;;;15.60;57.00;;;;;;5026172;28;20385;-79
2022/05/08 11:13:18;;;;;;;;;;;15.50;57.60;;;;;;5007427;28;19917;-79
2022/05/08 11:15:44;;;;;;;;;;;15.20;57.30;;;;;;5003441;28;19944;-79
2022/05/08 11:18:15;;;;;;;;;;;15.00;58.40;;;;;;5004711;28;20355;-79
2022/05/08 11:20:46;;;;;;;;;;;14.90;58.20;;;;;;4997291;28;19924;-79
2022/05/08 11:23:13;;;;;;;;;;;15.00;60.20;;;;;;4996226;28;19921;-79
2022/05/08 11:25:39;;;;;;;;;;;15.10;61.10;;;;;;4993142;28;19921;-79
2022/05/08 11:28:05;;;;;;;;;;;15.10;61.30;;;;;;4997583;28;19922;-80
2022/05/08 11:30:31;;;;;;;;;;;15.20;58.60;;;;;;5006537;28;19921;-79
2022/05/08 11:36:06;;;;;;;;;;;15.10;60.70;;;;;;5021712;28;19920;-79
2022/05/08 11:38:39;;;;;;;;;;;15.20;60.20;;;;;;5026997;28;20021;-79
2022/05/08 11:41:06;;;;;;;;;;;15.30;58.80;;;;;;5010751;28;19928;-79
2022/05/08 11:43:50;;;;;;;;;;;15.40;58.60;;;;;;5044887;28;19979;-80
2022/05/08 11:46:17;;;;;;;;;;;15.30;57.80;;;;;;5023879;28;20265;-79
2022/05/08 11:48:43;;;;;;;;;;;15.20;58.50;;;;;;5028479;28;19924;-79
2022/05/08 11:51:32;;;;;;;;;;;15.20;59.10;;;;;;5003879;28;20100;-79
2022/05/08 11:53:57;;;;;;;;;;;15.40;55.60;;;;;;5027032;28;19975;-80
2022/05/08 11:56:26;;;;;;;;;;;15.50;58.00;;;;;;5004007;28;20378;-79
2022/05/08 11:58:52;;;;;;;;;;;15.60;57.30;;;;;;5039008;28;19920;-80
2022/05/08 12:01:24;;;;;;;;;;;15.60;56.50;;;;;;5039840;28;19921;-78
2022/05/08 12:03:49;;;;;;;;;;;15.60;56.10;;;;;;5044875;28;19925;-79
2022/05/08 12:06:15;;;;;;;;;;;15.60;55.70;;;;;;5035333;28;20129;-79
2022/05/08 12:08:41;;;;;;;;;;;15.70;56.60;;;;;;5007672;28;19913;-79
2022/05/08 12:11:06;;;;;;;;;;;15.80;55.90;;;;;;5022220;28;19936;-79
2022/05/08 12:13:34;;;;;;;;;;;15.70;57.00;;;;;;5008938;28;19917;-80
2022/05/08 12:16:15;;;;;;;;;;;15.80;56.30;;;;;;5013109;28;19909;-80
2022/05/08 12:19:00;;;;;;;;;;;15.90;53.60;;;;;;5012131;28;19929;-81
2022/05/08 12:21:28;;;;;;;;;;;16.00;52.80;;;;;;5020694;28;19936;-80
2022/05/08 12:23:54;;;;;;;;;;;16.00;51.80;;;;;;5016210;28;19928;-79
2022/05/08 12:26:19;;;;;;;;;;;15.90;53.70;;;;;;5013837;28;22002;-79
2022/05/08 12:28:45;;;;;;;;;;;15.90;54.50;;;;;;4999740;28;19948;-80
2022/05/08 12:31:11;;;;;;;;;;;15.90;53.50;;;;;;4999532;28;19921;-84
2022/05/08 12:33:36;;;;;;;;;;;16.00;52.40;;;;;;5000722;28;20400;-86
2022/05/08 12:36:02;;;;;;;;;;;16.00;53.20;;;;;;5014775;28;19921;-84
2022/05/08 12:38:27;;;;;;;;;;;16.00;52.20;;;;;;5007792;28;20689;-84
2022/05/08 12:40:53;;;;;;;;;;;16.10;51.40;;;;;;5004934;28;19913;-84
2022/05/08 12:43:18;;;;;;;;;;;16.10;51.00;;;;;;5019037;28;19919;-83
2022/05/08 12:45:44;;;;;;;;;;;16.20;51.70;;;;;;5037382;28;19916;-83
2022/05/08 12:48:11;;;;;;;;;;;16.20;52.30;;;;;;5020519;28;20392;-83
2022/05/08 12:50:37;;;;;;;;;;;16.20;53.50;;;;;;5016717;28;20348;-84
2022/05/08 12:53:02;;;;;;;;;;;16.30;55.30;;;;;;5022116;28;19919;-84
2022/05/08 12:55:28;;;;;;;;;;;16.50;55.10;;;;;;5033381;28;19918;-85
2022/05/08 13:00:37;;;;;;;;;;;16.50;54.50;;;;;;5031726;28;19968;-87
2022/05/08 13:03:03;;;;;;;;;;;16.60;53.10;;;;;;5032072;28;20012;-85
2022/05/08 13:05:29;;;;;;;;;;;16.50;54.20;;;;;;5037435;28;19917;-85
2022/05/08 13:07:55;;;;;;;;;;;16.60;54.20;;;;;;5032457;28;19909;-84
2022/05/08 13:10:20;;;;;;;;;;;16.60;55.70;;;;;;5036798;28;20296;-84
2022/05/08 13:12:46;;;;;;;;;;;16.60;55.80;;;;;;5022315;28;20278;-84
2022/05/08 13:15:12;;;;;;;;;;;16.60;56.60;;;;;;5040049;28;19913;-84
2022/05/08 13:17:37;;;;;;;;;;;16.80;55.10;;;;;;5024243;28;19936;-85
2022/05/08 13:20:03;;;;;;;;;;;16.80;55.50;;;;;;5032390;28;20059;-84
2022/05/08 13:22:28;;;;;;;;;;;16.80;54.60;;;;;;5037812;28;19913;-84
2022/05/08 13:24:54;;;;;;;;;;;16.80;52.80;;;;;;5015966;28;19961;-84
2022/05/08 13:27:19;;;;;;;;;;;16.80;54.80;;;;;;5027365;28;19937;-84
2022/05/08 13:29:45;;;;;;;;;;;17.10;54.70;;;;;;5027812;28;19939;-85
2022/05/08 13:32:10;;;;;;;;;;;17.00;53.00;;;;;;5033182;28;19924;-84
2022/05/08 13:34:37;;;;;;;;;;;17.10;52.10;;;;;;5031010;28;19915;-84
2022/05/08 13:37:02;;;;;;;;;;;17.10;53.50;;;;;;5020518;28;20076;-85
2022/05/08 13:39:28;;;;;;;;;;;17.10;54.10;;;;;;5026009;28;20048;-84
2022/05/08 13:41:54;;;;;;;;;;;17.10;55.00;;;;;;5025551;28;19917;-85
2022/05/08 13:44:20;;;;;;;;;;;17.10;53.50;;;;;;5020782;28;19917;-82
2022/05/08 13:46:47;;;;;;;;;;;17.30;53.50;;;;;;5029324;28;20012;-83
2022/05/08 13:49:12;;;;;;;;;;;17.30;54.40;;;;;;5032466;28;19909;-85
2022/05/08 13:51:38;;;;;;;;;;;17.10;53.20;;;;;;5019656;28;19924;-82
2022/05/08 13:54:04;;;;;;;;;;;17.30;52.60;;;;;;5023318;28;19940;-84
2022/05/08 13:56:30;;;;;;;;;;;17.40;52.50;;;;;;5035085;28;19913;-83
2022/05/08 13:58:56;;;;;;;;;;;17.50;51.20;;;;;;5016867;28;19920;-82
2022/05/08 14:01:22;;;;;;;;;;;17.50;51.20;;;;;;5013197;28;19921;-82
2022/05/08 14:03:47;;;;;;;;;;;17.40;51.30;;;;;;5018696;28;19976;-81
2022/05/08 14:06:13;;;;;;;;;;;17.30;52.40;;;;;;5030959;28;20399;-83
2022/05/08 14:08:42;;;;;;;;;;;17.30;53.90;;;;;;5014861;28;19914;-82
2022/05/08 14:11:07;;;;;;;;;;;17.40;54.70;;;;;;5012615;28;20392;-82
2022/05/08 14:13:34;;;;;;;;;;;17.50;51.90;;;;;;5033632;28;20015;-84
2022/05/08 14:15:59;;;;;;;;;;;17.60;52.60;;;;;;5036355;28;19945;-82
2022/05/08 14:18:25;;;;;;;;;;;17.60;52.30;;;;;;5035637;28;19909;-82
2022/05/08 14:20:50;;;;;;;;;;;17.60;51.10;;;;;;5018280;28;19917;-82
2022/05/08 14:23:16;;;;;;;;;;;17.50;50.90;;;;;;5016348;28;19917;-82
2022/05/08 14:25:41;;;;;;;;;;;17.50;50.30;;;;;;5017264;28;19913;-82
2022/05/08 14:28:07;;;;;;;;;;;17.60;52.80;;;;;;5017870;28;20312;-83
2022/05/08 14:30:35;;;;;;;;;;;17.80;49.90;;;;;;5018524;28;19913;-82
2022/05/08 14:36:04;;;;;;;;;;;17.90;49.40;;;;;;5034166;28;19936;-81
2022/05/08 14:38:29;;;;;;;;;;;18.00;50.20;;;;;;5014815;28;20520;-82
2022/05/08 14:40:56;;;;;;;;;;;17.80;49.60;;;;;;4997934;28;19985;-83
2022/05/08 14:43:21;;;;;;;;;;;17.80;50.90;;;;;;5023393;28;20008;-83
2022/05/08 14:45:47;;;;;;;;;;;17.90;51.20;;;;;;5017773;28;20388;-83
2022/05/08 14:48:13;;;;;;;;;;;18.00;50.10;;;;;;5016619;28;20001;-82
2022/05/08 14:50:39;;;;;;;;;;;18.10;49.70;;;;;;5035293;28;20015;-82